Time;durP1;ratioP1;P1;durP2;ratioP2;P2;SDS_P1;SDS_P2;PMS_P1;PMS_P2;Temp;Humidity;BMP_temperature;BMP_pressure;BME280_temperature;BME280_humidity;BME280_pressure;Samples;Min_cycle;Max_cycle;Signal;HPM_P1;HPM_P2
2022/03/14 00:02:26;;;;;;;34.50;15.87;;;;;;;;;;5020414;28;20263;-76
2022/03/14 00:04:54;;;;;;;35.93;15.67;;;;;;;;;;5020684;28;20220;-77
2022/03/14 00:07:22;;;;;;;35.77;16.03;;;;;;;;;;5024328;28;20239;-77
2022/03/14 00:09:49;;;;;;;36.90;15.17;;;;;;;;;;5026100;28;20203;-75
2022/03/14 00:12:25;;;;;;;31.70;14.93;;;;;;;;;;5020936;28;20206;-75
2022/03/14 00:14:56;;;;;;;34.67;15.63;;;;;;;;;;5024848;28;20556;-77
2022/03/14 00:17:24;;;;;;;31.07;14.70;;;;;;;;;;5021177;28;20204;-77
2022/03/14 00:19:52;;;;;;;26.97;13.97;;;;;;;;;;5023064;28;20252;-76
2022/03/14 00:22:22;;;;;;;35.27;15.30;;;;;;;;;;5022473;28;20204;-76
2022/03/14 00:24:49;;;;;;;32.23;15.07;;;;;;;;;;5022044;28;20657;-75
2022/03/14 00:27:16;;;;;;;33.73;14.87;;;;;;;;;;5020105;28;20212;-76
2022/03/14 00:29:44;;;;;;;40.37;16.67;;;;;;;;;;5021931;28;20707;-77
2022/03/14 00:32:11;;;;;;;39.27;16.40;;;;;;;;;;5020432;28;20200;-77
2022/03/14 00:34:38;;;;;;;41.43;17.83;;;;;;;;;;5019978;28;20319;-76
2022/03/14 00:37:07;;;;;;;39.60;16.80;;;;;;;;;;5022980;28;20246;-76
2022/03/14 00:39:34;;;;;;;39.53;17.73;;;;;;;;;;5023134;28;20235;-76
2022/03/14 00:42:02;;;;;;;37.37;16.10;;;;;;;;;;5025805;28;20286;-76
2022/03/14 00:44:31;;;;;;;33.60;15.67;;;;;;;;;;5021738;28;20220;-76
2022/03/14 00:46:58;;;;;;;33.93;15.50;;;;;;;;;;5020856;28;20323;-76
2022/03/14 00:49:25;;;;;;;36.40;15.77;;;;;;;;;;5019764;28;20208;-76
2022/03/14 00:51:53;;;;;;;37.33;16.80;;;;;;;;;;5024463;28;20210;-76
2022/03/14 00:54:21;;;;;;;33.13;15.27;;;;;;;;;;5026210;28;20326;-76
2022/03/14 00:56:51;;;;;;;38.13;16.30;;;;;;;;;;5016265;28;20600;-76
2022/03/14 00:59:18;;;;;;;42.93;17.53;;;;;;;;;;5025283;28;20196;-77
2022/03/14 01:01:45;;;;;;;34.27;16.97;;;;;;;;;;5018641;28;20291;-76
2022/03/14 01:04:12;;;;;;;33.00;16.37;;;;;;;;;;5016070;28;20230;-77
2022/03/14 01:06:39;;;;;;;36.60;16.23;;;;;;;;;;5022643;28;20208;-77
2022/03/14 01:09:07;;;;;;;36.67;17.00;;;;;;;;;;5022252;28;20677;-76
2022/03/14 01:11:37;;;;;;;35.07;16.30;;;;;;;;;;5022748;28;20308;-77
2022/03/14 01:14:04;;;;;;;36.73;17.43;;;;;;;;;;5013273;28;20299;-76
2022/03/14 01:16:32;;;;;;;34.13;14.83;;;;;;;;;;5022523;28;20690;-76
2022/03/14 01:19:00;;;;;;;44.67;16.63;;;;;;;;;;5024026;28;20649;-76
2022/03/14 01:21:29;;;;;;;40.33;16.57;;;;;;;;;;5022895;28;20645;-76
2022/03/14 01:23:56;;;;;;;36.53;17.53;;;;;;;;;;5018357;28;20223;-77
2022/03/14 01:26:24;;;;;;;44.70;16.80;;;;;;;;;;5020492;28;20211;-77
2022/03/14 01:28:52;;;;;;;34.03;16.40;;;;;;;;;;5019887;28;20208;-76
2022/03/14 01:31:19;;;;;;;29.33;15.13;;;;;;;;;;5019615;28;20208;-77
2022/03/14 01:33:46;;;;;;;29.50;14.87;;;;;;;;;;5025673;28;20227;-77
2022/03/14 01:36:14;;;;;;;31.63;14.27;;;;;;;;;;5025020;28;20216;-77
2022/03/14 01:38:41;;;;;;;34.20;16.27;;;;;;;;;;5024042;28;20299;-77
2022/03/14 01:41:10;;;;;;;35.67;17.27;;;;;;;;;;5023420;28;20204;-77
2022/03/14 01:43:37;;;;;;;32.20;16.27;;;;;;;;;;5027067;28;20220;-77
2022/03/14 01:46:05;;;;;;;33.33;15.60;;;;;;;;;;5021025;28;20203;-77
2022/03/14 01:48:33;;;;;;;36.00;16.27;;;;;;;;;;5022843;28;20205;-77
2022/03/14 01:51:00;;;;;;;34.70;16.50;;;;;;;;;;5023847;28;20204;-79
2022/03/14 01:53:28;;;;;;;34.37;17.10;;;;;;;;;;5020355;28;20252;-77
2022/03/14 01:55:56;;;;;;;35.20;16.73;;;;;;;;;;5020502;28;20203;-77
2022/03/14 01:58:23;;;;;;;34.23;16.83;;;;;;;;;;5024426;28;20215;-78
2022/03/14 02:00:51;;;;;;;38.80;18.47;;;;;;;;;;5020326;28;20218;-78
2022/03/14 02:03:20;;;;;;;41.13;18.47;;;;;;;;;;5022711;28;20219;-77
2022/03/14 02:05:48;;;;;;;39.33;18.60;;;;;;;;;;5018350;28;20298;-78
2022/03/14 02:08:16;;;;;;;38.50;18.40;;;;;;;;;;5025368;28;20290;-77
2022/03/14 02:10:43;;;;;;;35.87;17.83;;;;;;;;;;5027441;28;20298;-77
2022/03/14 02:13:11;;;;;;;33.77;16.03;;;;;;;;;;5022113;28;21000;-77
2022/03/14 02:15:39;;;;;;;37.20;17.77;;;;;;;;;;5020343;28;20203;-78
2022/03/14 02:18:07;;;;;;;38.17;18.40;;;;;;;;;;5019726;28;20237;-77
2022/03/14 02:20:35;;;;;;;37.27;18.20;;;;;;;;;;5021217;28;20577;-76
2022/03/14 02:23:04;;;;;;;38.03;18.10;;;;;;;;;;5022070;28;20238;-76
2022/03/14 02:25:34;;;;;;;36.67;16.50;;;;;;;;;;5020651;28;20206;-76
2022/03/14 02:28:02;;;;;;;35.47;16.53;;;;;;;;;;5024268;28;20211;-77
2022/03/14 02:30:29;;;;;;;35.50;16.97;;;;;;;;;;5017942;28;20393;-78
2022/03/14 02:32:58;;;;;;;35.13;17.03;;;;;;;;;;5021994;28;20255;-78
2022/03/14 02:35:29;;;;;;;37.60;17.93;;;;;;;;;;5018399;28;20228;-77
2022/03/14 02:37:58;;;;;;;38.67;17.63;;;;;;;;;;5018981;28;20216;-77
2022/03/14 02:40:25;;;;;;;35.93;17.33;;;;;;;;;;5017842;28;20208;-78
2022/03/14 02:42:52;;;;;;;36.03;17.80;;;;;;;;;;5019646;28;20228;-77
2022/03/14 02:45:21;;;;;;;36.63;17.67;;;;;;;;;;5013997;28;20196;-77
2022/03/14 02:47:48;;;;;;;39.63;17.03;;;;;;;;;;5018379;28;20288;-78
2022/03/14 02:50:15;;;;;;;40.03;17.90;;;;;;;;;;5020239;28;20294;-77
2022/03/14 02:52:42;;;;;;;37.17;17.17;;;;;;;;;;5018598;28;20215;-76
2022/03/14 02:55:11;;;;;;;38.73;17.97;;;;;;;;;;5016795;28;20231;-77
2022/03/14 02:57:38;;;;;;;39.37;18.10;;;;;;;;;;5020326;28;20223;-77
2022/03/14 03:00:06;;;;;;;41.67;18.73;;;;;;;;;;5021400;28;20682;-78
2022/03/14 03:02:36;;;;;;;42.67;18.67;;;;;;;;;;5021612;28;20204;-77
2022/03/14 03:05:05;;;;;;;39.27;18.30;;;;;;;;;;5020098;28;20650;-77
2022/03/14 03:07:32;;;;;;;38.67;17.80;;;;;;;;;;5018298;28;20295;-77
2022/03/14 03:10:00;;;;;;;39.63;19.07;;;;;;;;;;5025389;28;20298;-77
2022/03/14 03:12:31;;;;;;;41.13;18.63;;;;;;;;;;5023879;28;20402;-77
2022/03/14 03:14:58;;;;;;;39.17;17.60;;;;;;;;;;5029051;28;20724;-77
2022/03/14 03:17:26;;;;;;;41.67;18.63;;;;;;;;;;5022736;28;20211;-77
2022/03/14 03:19:53;;;;;;;40.10;18.80;;;;;;;;;;5021665;28;20215;-77
2022/03/14 03:22:20;;;;;;;39.93;18.03;;;;;;;;;;5027700;28;20209;-77
2022/03/14 03:24:47;;;;;;;35.20;18.10;;;;;;;;;;5023069;28;20315;-78
2022/03/14 03:27:14;;;;;;;35.40;16.67;;;;;;;;;;5024430;28;20202;-77
2022/03/14 03:29:43;;;;;;;42.97;17.33;;;;;;;;;;5025097;28;20203;-78
2022/03/14 03:32:10;;;;;;;39.87;18.03;;;;;;;;;;5020617;28;20772;-77
2022/03/14 03:34:37;;;;;;;37.70;17.63;;;;;;;;;;5022258;28;20730;-78
2022/03/14 03:37:07;;;;;;;37.33;16.63;;;;;;;;;;5016918;28;20208;-77
2022/03/14 03:39:34;;;;;;;40.17;18.00;;;;;;;;;;5021664;28;20204;-78
2022/03/14 03:42:02;;;;;;;39.47;17.53;;;;;;;;;;5021537;28;20211;-77
2022/03/14 03:44:29;;;;;;;35.83;17.83;;;;;;;;;;5022079;28;20322;-77
2022/03/14 03:46:58;;;;;;;41.17;18.73;;;;;;;;;;5018481;28;20302;-76
2022/03/14 03:49:25;;;;;;;38.70;18.00;;;;;;;;;;5021732;28;20200;-78
2022/03/14 03:51:53;;;;;;;41.63;18.23;;;;;;;;;;5021219;28;20291;-77
2022/03/14 03:54:20;;;;;;;34.30;17.53;;;;;;;;;;5023820;28;20232;-77
2022/03/14 03:56:47;;;;;;;41.70;18.63;;;;;;;;;;5022350;28;20261;-77
2022/03/14 03:59:14;;;;;;;40.73;18.00;;;;;;;;;;5023594;28;20290;-79
2022/03/14 04:01:43;;;;;;;37.60;17.50;;;;;;;;;;5023045;28;20380;-78
2022/03/14 04:04:11;;;;;;;41.67;17.97;;;;;;;;;;5021867;28;20228;-78
2022/03/14 04:06:41;;;;;;;44.17;19.90;;;;;;;;;;5023859;28;20209;-77
2022/03/14 04:09:09;;;;;;;43.47;18.87;;;;;;;;;;5022650;28;20200;-78
2022/03/14 04:11:36;;;;;;;45.27;19.73;;;;;;;;;;5024415;28;20207;-77
2022/03/14 04:14:04;;;;;;;42.23;18.90;;;;;;;;;;5023436;28;20318;-78
2022/03/14 04:16:31;;;;;;;40.83;18.97;;;;;;;;;;5022364;28;20211;-77
2022/03/14 04:18:58;;;;;;;45.10;19.37;;;;;;;;;;5023695;28;20234;-77
2022/03/14 04:21:27;;;;;;;45.13;19.40;;;;;;;;;;5024670;28;20208;-77
2022/03/14 04:23:54;;;;;;;40.03;18.83;;;;;;;;;;5016164;28;20240;-76
2022/03/14 04:26:22;;;;;;;47.70;19.90;;;;;;;;;;5019423;28;20199;-77
2022/03/14 04:28:49;;;;;;;43.93;20.73;;;;;;;;;;5023015;28;20294;-76
2022/03/14 04:31:16;;;;;;;41.93;19.13;;;;;;;;;;5024026;28;20390;-77
2022/03/14 04:33:43;;;;;;;43.70;20.00;;;;;;;;;;5018376;28;20231;-77
2022/03/14 04:36:10;;;;;;;46.53;20.67;;;;;;;;;;5028855;28;20242;-77
2022/03/14 04:38:39;;;;;;;46.13;20.87;;;;;;;;;;5026588;28;20209;-77
2022/03/14 04:41:08;;;;;;;45.50;20.13;;;;;;;;;;5020227;28;20262;-76
2022/03/14 04:43:35;;;;;;;46.70;20.73;;;;;;;;;;5013154;28;20214;-76
2022/03/14 04:46:02;;;;;;;42.07;19.67;;;;;;;;;;5012803;28;20634;-76
2022/03/14 04:48:30;;;;;;;42.60;19.50;;;;;;;;;;5020768;28;20286;-76
2022/03/14 04:50:57;;;;;;;50.03;20.87;;;;;;;;;;5021208;28;20243;-76
2022/03/14 04:53:24;;;;;;;44.13;19.27;;;;;;;;;;5020084;28;20585;-76
2022/03/14 04:55:53;;;;;;;54.87;20.40;;;;;;;;;;5022110;28;20723;-76
2022/03/14 04:58:20;;;;;;;46.23;20.23;;;;;;;;;;5019447;28;20204;-76
2022/03/14 05:00:47;;;;;;;50.33;21.87;;;;;;;;;;5023665;28;20313;-76
2022/03/14 05:03:14;;;;;;;42.00;20.97;;;;;;;;;;5025977;28;20224;-76
2022/03/14 05:05:42;;;;;;;45.83;20.87;;;;;;;;;;5016774;28;20415;-76
2022/03/14 05:08:09;;;;;;;48.37;21.60;;;;;;;;;;5018029;28;20323;-76
2022/03/14 05:10:36;;;;;;;44.73;21.53;;;;;;;;;;5012360;28;20297;-76
2022/03/14 05:13:05;;;;;;;52.93;22.33;;;;;;;;;;5018661;28;20235;-76
2022/03/14 05:15:33;;;;;;;45.90;20.60;;;;;;;;;;5014046;28;20223;-76
2022/03/14 05:18:01;;;;;;;49.13;22.20;;;;;;;;;;5017868;28;20214;-76
2022/03/14 05:20:28;;;;;;;48.77;21.73;;;;;;;;;;5020341;28;20215;-76
2022/03/14 05:22:55;;;;;;;52.90;22.20;;;;;;;;;;5017989;28;20232;-76
2022/03/14 05:25:23;;;;;;;51.40;20.77;;;;;;;;;;5011381;28;20201;-76
2022/03/14 05:27:53;;;;;;;49.97;22.23;;;;;;;;;;5017609;28;20290;-76
2022/03/14 05:30:22;;;;;;;50.33;22.40;;;;;;;;;;5018648;28;20648;-76
2022/03/14 05:32:49;;;;;;;56.23;23.30;;;;;;;;;;5017864;28;20273;-76
2022/03/14 05:35:17;;;;;;;50.37;22.13;;;;;;;;;;5013176;28;20295;-76
2022/03/14 05:37:44;;;;;;;49.50;21.73;;;;;;;;;;5012220;28;20303;-76
2022/03/14 05:40:15;;;;;;;52.67;22.33;;;;;;;;;;5013862;28;20200;-76
2022/03/14 05:42:43;;;;;;;44.73;21.23;;;;;;;;;;5016956;28;20262;-76
2022/03/14 05:45:11;;;;;;;44.33;21.67;;;;;;;;;;5016003;28;20200;-76
2022/03/14 05:47:39;;;;;;;47.00;22.03;;;;;;;;;;5013464;28;20323;-76
2022/03/14 05:50:07;;;;;;;56.40;21.40;;;;;;;;;;5016011;28;21538;-76
2022/03/14 05:52:34;;;;;;;47.07;21.50;;;;;;;;;;5018047;28;20200;-78
2022/03/14 05:55:02;;;;;;;50.60;21.97;;;;;;;;;;5013746;28;20228;-79
2022/03/14 05:57:29;;;;;;;49.93;22.73;;;;;;;;;;5016675;28;20277;-76
2022/03/14 05:59:56;;;;;;;45.37;21.03;;;;;;;;;;5009714;28;20260;-77
2022/03/14 06:02:23;;;;;;;46.77;20.67;;;;;;;;;;5012843;28;20204;-76
2022/03/14 06:04:53;;;;;;;52.70;21.17;;;;;;;;;;5016806;28;20249;-78
2022/03/14 06:07:21;;;;;;;52.73;21.83;;;;;;;;;;5015503;28;20576;-79
2022/03/14 06:09:51;;;;;;;49.03;22.50;;;;;;;;;;5019111;28;20200;-77
2022/03/14 06:12:24;;;;;;;54.83;22.60;;;;;;;;;;5010557;28;20212;-78
2022/03/14 06:14:53;;;;;;;55.80;22.43;;;;;;;;;;5017817;28;20980;-75
2022/03/14 06:17:20;;;;;;;48.50;22.60;;;;;;;;;;5017775;28;20291;-76
2022/03/14 06:19:47;;;;;;;52.33;21.93;;;;;;;;;;5020941;28;20203;-77
2022/03/14 06:22:17;;;;;;;53.43;22.57;;;;;;;;;;5009804;28;20206;-77
2022/03/14 06:24:47;;;;;;;51.97;21.50;;;;;;;;;;5021705;28;20621;-79
2022/03/14 06:27:15;;;;;;;54.97;22.27;;;;;;;;;;5022646;28;20211;-77
2022/03/14 06:29:42;;;;;;;50.27;22.80;;;;;;;;;;5024920;28;20305;-78
2022/03/14 06:32:10;;;;;;;46.83;21.80;;;;;;;;;;5026930;28;20247;-78
2022/03/14 06:34:37;;;;;;;44.67;21.30;;;;;;;;;;5023938;28;20306;-78
2022/03/14 06:37:06;;;;;;;53.17;23.40;;;;;;;;;;5024126;28;20211;-79
2022/03/14 06:39:36;;;;;;;46.53;21.73;;;;;;;;;;5028334;28;20210;-77
2022/03/14 06:42:05;;;;;;;54.33;22.33;;;;;;;;;;5028033;28;20198;-78
2022/03/14 06:44:32;;;;;;;55.13;21.90;;;;;;;;;;5024413;28;20236;-79
2022/03/14 06:46:59;;;;;;;48.67;21.67;;;;;;;;;;5031015;28;20304;-77
2022/03/14 06:49:26;;;;;;;54.07;21.70;;;;;;;;;;5034605;28;20235;-78
2022/03/14 06:51:54;;;;;;;47.90;21.47;;;;;;;;;;5031707;28;20200;-75
2022/03/14 06:54:21;;;;;;;52.83;21.23;;;;;;;;;;5028804;28;20222;-77
2022/03/14 06:56:49;;;;;;;55.57;22.03;;;;;;;;;;5025696;28;20230;-77
2022/03/14 06:59:17;;;;;;;50.07;22.43;;;;;;;;;;5028716;28;20215;-78
2022/03/14 07:01:44;;;;;;;51.60;21.73;;;;;;;;;;5027414;28;20277;-76
2022/03/14 07:04:11;;;;;;;43.67;21.27;;;;;;;;;;5024146;28;20457;-79
2022/03/14 07:06:39;;;;;;;47.40;22.07;;;;;;;;;;5026842;28;20262;-77
2022/03/14 07:09:07;;;;;;;52.27;23.53;;;;;;;;;;5029368;28;20214;-76
2022/03/14 07:11:34;;;;;;;53.20;22.30;;;;;;;;;;5029039;28;20210;-79
2022/03/14 07:14:03;;;;;;;49.07;22.73;;;;;;;;;;5024010;28;20224;-77
2022/03/14 07:16:30;;;;;;;54.73;22.40;;;;;;;;;;5021678;28;20311;-76
2022/03/14 07:18:57;;;;;;;49.93;22.10;;;;;;;;;;5019942;28;20623;-77
2022/03/14 07:21:28;;;;;;;51.77;22.63;;;;;;;;;;5021786;28;20283;-77
2022/03/14 07:23:56;;;;;;;57.80;23.47;;;;;;;;;;5018926;28;20224;-78
2022/03/14 07:26:23;;;;;;;52.67;24.07;;;;;;;;;;5022228;28;20499;-78
2022/03/14 07:28:50;;;;;;;53.23;24.33;;;;;;;;;;5024341;28;20218;-78
2022/03/14 07:31:20;;;;;;;49.70;23.17;;;;;;;;;;5020659;28;20208;-79
2022/03/14 07:33:47;;;;;;;48.20;22.47;;;;;;;;;;5021329;28;20278;-79
2022/03/14 07:36:15;;;;;;;53.10;22.30;;;;;;;;;;5026575;28;20694;-77
2022/03/14 07:38:42;;;;;;;46.90;22.27;;;;;;;;;;5022489;28;20215;-78
2022/03/14 07:41:10;;;;;;;45.60;22.03;;;;;;;;;;5023693;28;20303;-78
2022/03/14 07:43:37;;;;;;;42.83;20.27;;;;;;;;;;5025033;28;20275;-78
2022/03/14 07:46:05;;;;;;;44.20;20.10;;;;;;;;;;5026216;28;20616;-79
2022/03/14 07:48:34;;;;;;;43.93;21.10;;;;;;;;;;5024437;28;20204;-78
2022/03/14 07:51:03;;;;;;;50.03;20.57;;;;;;;;;;5026225;28;20280;-79
2022/03/14 07:53:30;;;;;;;45.10;20.27;;;;;;;;;;5030189;28;20837;-79
2022/03/14 07:55:57;;;;;;;50.63;21.53;;;;;;;;;;5028347;28;20228;-78
2022/03/14 07:58:25;;;;;;;56.70;22.80;;;;;;;;;;5027905;28;20227;-79
2022/03/14 08:00:54;;;;;;;53.63;25.73;;;;;;;;;;5030319;28;20195;-80
2022/03/14 08:03:22;;;;;;;56.30;24.23;;;;;;;;;;5027613;28;20247;-79
2022/03/14 08:05:53;;;;;;;45.23;23.43;;;;;;;;;;5025481;28;20690;-79
2022/03/14 08:08:20;;;;;;;53.23;22.87;;;;;;;;;;5030720;28;20212;-79
2022/03/14 08:10:48;;;;;;;55.00;22.93;;;;;;;;;;5028377;28;20208;-79
2022/03/14 08:13:15;;;;;;;48.90;22.03;;;;;;;;;;5027256;28;20247;-78
2022/03/14 08:15:42;;;;;;;51.90;21.87;;;;;;;;;;5026615;28;20247;-79
2022/03/14 08:18:10;;;;;;;46.57;21.63;;;;;;;;;;5027948;28;20204;-79
2022/03/14 08:20:37;;;;;;;43.80;20.60;;;;;;;;;;5032738;28;20306;-78
2022/03/14 08:23:06;;;;;;;44.23;20.90;;;;;;;;;;5026029;28;20283;-79
2022/03/14 08:25:35;;;;;;;44.10;20.17;;;;;;;;;;5031251;28;20231;-79
2022/03/14 08:28:02;;;;;;;40.77;19.97;;;;;;;;;;5031830;28;20680;-79
2022/03/14 08:30:30;;;;;;;49.13;19.57;;;;;;;;;;5025713;28;20238;-79
2022/03/14 08:32:58;;;;;;;42.37;19.50;;;;;;;;;;5031045;28;20223;-78
2022/03/14 08:35:26;;;;;;;43.80;21.23;;;;;;;;;;5031696;28;20209;-79
2022/03/14 08:37:54;;;;;;;48.87;20.93;;;;;;;;;;5028092;28;20208;-79
2022/03/14 08:40:24;;;;;;;47.20;20.47;;;;;;;;;;5031962;28;20282;-78
2022/03/14 08:42:52;;;;;;;49.27;22.17;;;;;;;;;;5029005;28;20207;-79
2022/03/14 08:45:22;;;;;;;47.00;21.10;;;;;;;;;;5027921;28;20371;-77
2022/03/14 08:47:49;;;;;;;53.27;21.20;;;;;;;;;;5022411;28;20216;-77
2022/03/14 08:50:17;;;;;;;42.17;20.47;;;;;;;;;;5022332;28;20560;-77
2022/03/14 08:52:45;;;;;;;47.00;19.47;;;;;;;;;;5016605;28;20581;-77
2022/03/14 08:55:13;;;;;;;43.77;17.77;;;;;;;;;;5020972;28;20248;-80
2022/03/14 08:57:42;;;;;;;34.93;16.47;;;;;;;;;;5019898;28;20274;-78
2022/03/14 09:00:11;;;;;;;41.77;18.00;;;;;;;;;;5021120;28;20722;-77
2022/03/14 09:02:38;;;;;;;34.13;15.80;;;;;;;;;;5019249;28;20246;-78
2022/03/14 09:05:06;;;;;;;27.33;13.67;;;;;;;;;;5021163;28;20209;-78
2022/03/14 09:07:33;;;;;;;33.23;14.40;;;;;;;;;;5024065;28;20686;-77
2022/03/14 09:10:03;;;;;;;32.83;15.90;;;;;;;;;;5027336;28;20204;-77
2022/03/14 09:12:33;;;;;;;17.93;8.00;;;;;;;;;;5025431;28;20200;-77
2022/03/14 09:15:01;;;;;;;19.03;8.30;;;;;;;;;;5018813;28;20212;-77
2022/03/14 09:17:29;;;;;;;11.33;5.57;;;;;;;;;;5020387;28;20286;-77
2022/03/14 09:19:57;;;;;;;7.17;2.80;;;;;;;;;;5021345;28;20266;-77
2022/03/14 09:22:25;;;;;;;17.73;6.03;;;;;;;;;;5019036;28;20208;-77
2022/03/14 09:24:55;;;;;;;9.00;4.63;;;;;;;;;;5016490;28;20223;-77
2022/03/14 09:27:23;;;;;;;20.57;8.20;;;;;;;;;;5027228;28;20200;-77
2022/03/14 09:29:51;;;;;;;15.00;6.20;;;;;;;;;;5023466;28;20303;-77
2022/03/14 09:32:20;;;;;;;40.37;21.00;;;;;;;;;;5024190;28;20208;-76
2022/03/14 09:34:47;;;;;;;32.40;16.50;;;;;;;;;;5021965;28;20243;-78
2022/03/14 09:37:14;;;;;;;13.23;4.80;;;;;;;;;;5019488;28;20349;-76
2022/03/14 09:39:41;;;;;;;8.37;3.30;;;;;;;;;;5018419;28;20210;-76
2022/03/14 09:42:12;;;;;;;37.27;20.53;;;;;;;;;;5020717;28;20208;-75
2022/03/14 09:44:40;;;;;;;8.07;4.60;;;;;;;;;;5022962;28;20237;-75
2022/03/14 09:47:07;;;;;;;7.60;3.30;;;;;;;;;;5020790;28;20294;-75
2022/03/14 09:49:37;;;;;;;8.97;2.10;;;;;;;;;;5022971;28;20423;-76
2022/03/14 09:52:04;;;;;;;12.97;5.40;;;;;;;;;;5028709;28;20211;-78
2022/03/14 09:54:32;;;;;;;24.47;10.67;;;;;;;;;;5023667;28;20613;-77
2022/03/14 09:57:01;;;;;;;8.73;4.40;;;;;;;;;;5030569;28;20256;-76
2022/03/14 09:59:28;;;;;;;10.23;4.20;;;;;;;;;;5032990;28;20218;-76
2022/03/14 10:01:56;;;;;;;12.70;6.47;;;;;;;;;;5033070;28;20220;-78
2022/03/14 10:04:23;;;;;;;15.47;8.53;;;;;;;;;;5033090;28;20267;-76
2022/03/14 10:06:52;;;;;;;19.47;7.80;;;;;;;;;;5031138;28;20245;-77
2022/03/14 10:09:19;;;;;;;7.37;4.47;;;;;;;;;;5025484;28;20742;-77
2022/03/14 10:11:46;;;;;;;22.63;13.23;;;;;;;;;;5021889;28;20205;-77
2022/03/14 10:14:19;;;;;;;26.93;17.00;;;;;;;;;;5021107;28;20220;-76
2022/03/14 10:16:47;;;;;;;16.07;7.57;;;;;;;;;;5022495;28;20674;-78
2022/03/14 10:19:20;;;;;;;8.40;5.27;;;;;;;;;;5021360;28;20212;-77
2022/03/14 10:21:50;;;;;;;16.80;8.33;;;;;;;;;;5027988;28;20204;-79
2022/03/14 10:24:22;;;;;;;6.20;2.70;;;;;;;;;;5026903;28;20239;-77
2022/03/14 10:26:49;;;;;;;5.37;2.93;;;;;;;;;;5018503;28;20637;-78
2022/03/14 10:29:18;;;;;;;8.80;4.77;;;;;;;;;;5022774;28;20204;-76
2022/03/14 10:31:46;;;;;;;15.83;7.30;;;;;;;;;;5018668;28;20670;-77
2022/03/14 10:34:14;;;;;;;8.40;2.93;;;;;;;;;;5023104;28;20263;-79
2022/03/14 10:36:45;;;;;;;7.40;3.20;;;;;;;;;;5022783;22;20927;-78
2022/03/14 10:39:13;;;;;;;10.50;5.57;;;;;;;;;;4993657;28;20216;-76
2022/03/14 10:41:42;;;;;;;7.13;3.47;;;;;;;;;;4996267;28;20242;-79
2022/03/14 10:44:09;;;;;;;4.57;1.93;;;;;;;;;;4995088;28;20780;-78
2022/03/14 10:46:40;;;;;;;32.63;16.33;;;;;;;;;;5000193;28;20212;-79
2022/03/14 10:49:10;;;;;;;17.23;8.33;;;;;;;;;;4998018;28;20224;-78
2022/03/14 10:51:52;;;;;;;6.37;3.33;;;;;;;;;;5000027;28;20557;-76
2022/03/14 10:54:19;;;;;;;5.90;2.23;;;;;;;;;;4998599;28;20232;-79
2022/03/14 10:57:01;;;;;;;16.53;7.53;;;;;;;;;;4999856;28;20801;-77
2022/03/14 10:59:35;;;;;;;5.77;3.03;;;;;;;;;;5000479;28;20208;-77
2022/03/14 11:02:02;;;;;;;14.07;6.67;;;;;;;;;;5000331;28;20286;-77
2022/03/14 11:04:29;;;;;;;7.87;3.57;;;;;;;;;;4999972;28;20232;-77
2022/03/14 11:07:00;;;;;;;7.80;3.30;;;;;;;;;;5001310;28;20207;-76
2022/03/14 11:09:38;;;;;;;8.03;2.27;;;;;;;;;;5001525;28;20307;-78
2022/03/14 11:12:08;;;;;;;5.20;2.50;;;;;;;;;;5000644;28;20281;-76
2022/03/14 11:14:37;;;;;;;4.63;1.97;;;;;;;;;;4995158;28;20723;-78
2022/03/14 11:17:11;;;;;;;6.47;1.83;;;;;;;;;;4999835;28;20224;-77
2022/03/14 11:19:39;;;;;;;4.97;1.70;;;;;;;;;;5000761;28;20290;-75
2022/03/14 11:22:10;;;;;;;5.37;1.80;;;;;;;;;;5001473;28;20205;-74
2022/03/14 11:24:38;;;;;;;6.90;2.60;;;;;;;;;;4996442;28;20257;-75
2022/03/14 11:27:06;;;;;;;11.77;5.07;;;;;;;;;;5000785;28;20294;-75
2022/03/14 11:29:34;;;;;;;8.17;3.10;;;;;;;;;;4997937;28;20215;-75
2022/03/14 11:32:11;;;;;;;7.13;3.77;;;;;;;;;;5001312;28;20294;-77
2022/03/14 11:34:39;;;;;;;3.70;2.27;;;;;;;;;;5000142;28;20229;-75
2022/03/14 11:37:06;;;;;;;3.53;1.70;;;;;;;;;;5000312;28;20248;-75
2022/03/14 11:39:34;;;;;;;11.40;5.60;;;;;;;;;;5003160;28;20332;-77
2022/03/14 11:42:12;;;;;;;6.23;3.13;;;;;;;;;;5000240;28;20250;-77
2022/03/14 11:44:39;;;;;;;12.13;6.87;;;;;;;;;;5001931;28;20228;-76
2022/03/14 11:47:09;;;;;;;3.93;2.13;;;;;;;;;;4997139;28;20740;-76
2022/03/14 11:49:37;;;;;;;4.80;1.40;;;;;;;;;;5000903;28;20251;-76
2022/03/14 11:52:08;;;;;;;6.03;2.20;;;;;;;;;;4996942;28;20259;-76
2022/03/14 11:54:40;;;;;;;4.07;1.77;;;;;;;;;;4999433;28;20232;-77
2022/03/14 11:57:07;;;;;;;7.57;2.23;;;;;;;;;;5001126;28;20220;-76
2022/03/14 11:59:36;;;;;;;7.53;2.10;;;;;;;;;;5000672;28;20375;-75
2022/03/14 12:02:05;;;;;;;3.30;1.70;;;;;;;;;;4997287;28;20205;-75
2022/03/14 12:04:35;;;;;;;5.00;2.30;;;;;;;;;;4999605;28;20902;-76
2022/03/14 12:07:12;;;;;;;4.03;2.10;;;;;;;;;;4999316;28;20247;-76
2022/03/14 12:09:45;;;;;;;4.67;2.03;;;;;;;;;;4999327;28;20236;-77
2022/03/14 12:12:31;;;;;;;2.17;1.73;;;;;;;;;;4994590;28;20759;-76
2022/03/14 12:14:59;;;;;;;6.17;2.90;;;;;;;;;;4994970;28;20243;-77
2022/03/14 12:17:27;;;;;;;4.97;2.57;;;;;;;;;;4997282;28;20319;-77
2022/03/14 12:19:57;;;;;;;8.73;4.97;;;;;;;;;;4994930;28;20209;-76
2022/03/14 12:22:43;;;;;;;4.23;1.53;;;;;;;;;;4998507;28;20227;-77
2022/03/14 12:25:11;;;;;;;4.83;2.23;;;;;;;;;;4995137;28;20204;-77
2022/03/14 12:27:38;;;;;;;4.43;3.07;;;;;;;;;;4997968;28;20200;-77
2022/03/14 12:30:07;;;;;;;2.87;1.80;;;;;;;;;;5000402;28;20267;-77
2022/03/14 12:32:38;;;;;;;5.00;2.23;;;;;;;;;;5001402;28;20288;-77
2022/03/14 12:35:12;;;;;;;3.87;1.97;;;;;;;;;;4999603;28;20208;-77
2022/03/14 12:37:40;;;;;;;5.53;1.40;;;;;;;;;;4996017;28;20689;-77
2022/03/14 12:40:09;;;;;;;2.97;1.40;;;;;;;;;;5000366;28;20227;-77
2022/03/14 12:42:40;;;;;;;4.67;1.27;;;;;;;;;;5002514;28;20210;-77
2022/03/14 12:45:24;;;;;;;2.73;1.27;;;;;;;;;;4998556;28;20219;-78
2022/03/14 12:47:52;;;;;;;4.73;1.10;;;;;;;;;;5001559;28;20259;-77
2022/03/14 12:50:38;;;;;;;3.33;1.23;;;;;;;;;;5002281;28;20254;-77
2022/03/14 12:53:06;;;;;;;2.33;1.00;;;;;;;;;;5000337;28;20230;-77
2022/03/14 12:55:34;;;;;;;4.57;1.37;;;;;;;;;;5000889;28;20304;-78
2022/03/14 12:58:01;;;;;;;3.93;1.40;;;;;;;;;;5001440;28;20224;-78
2022/03/14 13:00:28;;;;;;;4.27;2.37;;;;;;;;;;4997540;28;20218;-77
2022/03/14 13:02:57;;;;;;;2.87;1.30;;;;;;;;;;5006208;28;20316;-78
2022/03/14 13:05:24;;;;;;;13.23;8.33;;;;;;;;;;4992259;28;20208;-75
2022/03/14 13:08:01;;;;;;;4.90;1.90;;;;;;;;;;4991347;28;20635;-75
2022/03/14 13:10:40;;;;;;;4.43;2.87;;;;;;;;;;4990950;28;20215;-77
2022/03/14 13:13:09;;;;;;;5.33;3.10;;;;;;;;;;4997782;28;20314;-77
2022/03/14 13:15:37;;;;;;;2.80;1.10;;;;;;;;;;4995051;28;20310;-77
2022/03/14 13:18:17;;;;;;;8.47;5.67;;;;;;;;;;4996401;28;20260;-77
2022/03/14 13:20:45;;;;;;;8.03;4.07;;;;;;;;;;4997535;28;20201;-76
2022/03/14 13:23:16;;;;;;;6.07;3.77;;;;;;;;;;4990743;28;20231;-77
2022/03/14 13:25:47;;;;;;;7.90;3.93;;;;;;;;;;4995425;28;20199;-77
2022/03/14 13:28:26;;;;;;;7.57;4.37;;;;;;;;;;5000444;28;20200;-77
2022/03/14 13:30:54;;;;;;;4.57;1.50;;;;;;;;;;5001078;28;20211;-77
2022/03/14 13:33:24;;;;;;;6.87;1.90;;;;;;;;;;5005943;28;20307;-76
2022/03/14 13:35:51;;;;;;;4.03;2.00;;;;;;;;;;4998146;28;20208;-75
2022/03/14 13:38:28;;;;;;;4.87;3.50;;;;;;;;;;4999464;28;20249;-78
2022/03/14 13:40:57;;;;;;;3.07;2.23;;;;;;;;;;5000696;28;20204;-76
2022/03/14 13:43:24;;;;;;;2.17;0.93;;;;;;;;;;4999981;28;21500;-79
2022/03/14 13:45:52;;;;;;;4.90;2.40;;;;;;;;;;4999790;28;20307;-77
2022/03/14 13:48:22;;;;;;;6.77;2.50;;;;;;;;;;5004324;28;20626;-78
2022/03/14 13:50:50;;;;;;;6.60;1.70;;;;;;;;;;5001164;28;20291;-77
2022/03/14 13:53:21;;;;;;;11.63;7.53;;;;;;;;;;5004188;28;20220;-78
2022/03/14 13:55:57;;;;;;;2.17;1.83;;;;;;;;;;4997726;28;20480;-76
2022/03/14 13:58:25;;;;;;;3.63;1.30;;;;;;;;;;5000422;28;20347;-78
2022/03/14 14:00:52;;;;;;;12.60;6.77;;;;;;;;;;5000948;28;20685;-76
2022/03/14 14:03:23;;;;;;;1.63;1.30;;;;;;;;;;5001560;28;20221;-77
2022/03/14 14:05:50;;;;;;;2.47;1.50;;;;;;;;;;4997350;28;20675;-77
2022/03/14 14:08:31;;;;;;;5.87;3.10;;;;;;;;;;5002787;28;20267;-75
2022/03/14 14:10:59;;;;;;;4.87;3.03;;;;;;;;;;5001689;28;20219;-75
2022/03/14 14:13:27;;;;;;;5.57;3.47;;;;;;;;;;5002445;28;20247;-75
2022/03/14 14:15:57;;;;;;;15.07;8.17;;;;;;;;;;4998193;28;20575;-76
2022/03/14 14:18:25;;;;;;;4.53;2.80;;;;;;;;;;4996752;28;20623;-75
2022/03/14 14:20:54;;;;;;;3.30;1.80;;;;;;;;;;5001376;28;20832;-76
2022/03/14 14:23:22;;;;;;;5.07;2.80;;;;;;;;;;5001445;28;20589;-76
2022/03/14 14:25:50;;;;;;;18.60;10.97;;;;;;;;;;4999247;28;20204;-75
2022/03/14 14:28:21;;;;;;;11.73;5.00;;;;;;;;;;5003235;28;20200;-76
2022/03/14 14:30:49;;;;;;;6.83;3.23;;;;;;;;;;4998781;28;20757;-77
2022/03/14 14:33:17;;;;;;;4.00;1.87;;;;;;;;;;5000041;28;20311;-76
2022/03/14 14:35:46;;;;;;;4.87;1.90;;;;;;;;;;4998730;28;20313;-76